Weather at Ohrid St. Paul the Apostle Airport

Public forecast

Using degrees Celsius for public forecast. Weather courtesy of forecast.io.

Current aviation weather report (METAR) for Ohrid St. Paul the Apostle Airport

2022/11/30 16:30 (retrieved 2 minutes ago)

LWOH 301630Z 33007KT 9999 OVC040 06/02 Q1013

Aviation forecast (TAF) for Ohrid St. Paul the Apostle Airport

2022/11/30 15:27 (retrieved 1 hour ago)

TAF LWOH 301420Z 3015/0115 34008KT 9999 FEW020 OVC040 TEMPO 3012/3020 -RA TEMPO 3023/0112 RA BKN015 OVC030